^^
 
Daily Summary for January 28, 2020 Units:  English    Metric   Both
Daily Weekly Monthly Yearly Custom
  Current: High: Low: Average:
Temperature: 48.8 °F 56.4 °F 40.4 °F 47.5 °F
Dew Point: 42.6 °F 45.5 °F 36.2 °F 40.9 °F
Humidity: 79% 87.5% 61% 78%
Wind Speed: 0mph 7.8mph 0mph 1.1mph
Wind Gust: 0mph 14mph - -
WindCalm - - WNW
Pressure: 30.27 in 30.37 in 30.24 in -
Precipitation: 0.00 in      
Historical Graphs
 
 
Tabular Data for January 28, 2020
Time Temperature Dew Point Pressure Wind Wind Speed Wind Gust Humidity Rainfall Rate (Hourly) solar
00:04 45.8 °F 41.9 °F 30.32 in Calm     86% 0.00 in 0 W/m2
00:09 45.7 °F 41.8 °F 30.32 in Calm     86% 0.00 in 0 W/m2
00:14 45.6 °F 41.7 °F 30.32 in Calm     85.9% 0.00 in 0 W/m2
00:19 45.6 °F 41.4 °F 30.31 in Calm     85% 0.00 in 0 W/m2
00:24 45.5 °F 41.3 °F 30.31 in Calm     85% 0.00 in 0 W/m2
00:29 45.4 °F 41.4 °F 30.31 in Calm     85.9% 0.00 in 0 W/m2
00:34 45.3 °F 41.4 °F 30.31 in Calm     86% 0.00 in 0 W/m2
00:39 45.2 °F 41.2 °F 30.31 in Calm     85.8% 0.00 in 0 W/m2
00:44 45.1 °F 41 °F 30.32 in Calm     85.6% 0.00 in 0 W/m2
00:49 45 °F 41.1 °F 30.31 in Calm     86% 0.00 in 0 W/m2
00:54 44.9 °F 41 °F 30.32 in Calm     86% 0.00 in 0 W/m2
00:59 44.8 °F 40.9 °F 30.32 in Calm     86% 0.00 in 0 W/m2
01:04 44.7 °F 40.8 °F 30.32 in Calm     86% 0.00 in 0 W/m2
01:09 44.7 °F 40.8 °F 30.32 in WSW 0.3 mph 0.5 mph 86% 0.00 in 0 W/m2
01:14 44.7 °F 40.8 °F 30.32 in WSW 0.6 mph 2 mph 86% 0.00 in 0 W/m2
01:19 44.7 °F 40.8 °F 30.32 in Calm     86% 0.00 in 0 W/m2
01:24 44.7 °F 40.8 °F 30.32 in Calm     86% 0.00 in 0 W/m2
01:29 44.7 °F 40.8 °F 30.32 in Calm     86.1% 0.00 in 0 W/m2
01:34 44.8 °F 41.1 °F 30.32 in Calm     86.6% 0.00 in 0 W/m2
01:39 44.8 °F 41.2 °F 30.32 in Calm     87% 0.00 in 0 W/m2
01:44 44.9 °F 41.3 °F 30.32 in Calm     87% 0.00 in 0 W/m2
01:49 44.9 °F 41.3 °F 30.33 in Calm     87% 0.00 in 0 W/m2
01:54 45 °F 41.4 °F 30.34 in West 1.9 mph 2 mph 87% 0.00 in 0 W/m2
01:59 45.1 °F 41.5 °F 30.34 in NW 1.4 mph 4 mph 87% 0.00 in 0 W/m2
02:04 45.1 °F 41.5 °F 30.35 in NNW 1.3 mph 4 mph 87% 0.00 in 0 W/m2
02:09 45.1 °F 41.5 °F 30.35 in Calm   2 mph 87% 0.00 in 0 W/m2
02:14 45.2 °F 41.6 °F 30.34 in Calm     87% 0.00 in 0 W/m2
02:19 45.2 °F 41.6 °F 30.35 in North 0.3 mph 0.2 mph 87% 0.00 in 0 W/m2
02:24 45.1 °F 41.5 °F 30.35 in North 0.6 mph 2 mph 87% 0.00 in 0 W/m2
02:29 45.1 °F 41.5 °F 30.35 in Calm   2 mph 87% 0.00 in 0 W/m2
02:34 45.1 °F 41.5 °F 30.35 in Calm     87% 0.00 in 0 W/m2
02:39 45.1 °F 41.5 °F 30.35 in Calm     87% 0.00 in 0 W/m2
02:44 45.1 °F 41.5 °F 30.35 in Calm     87% 0.00 in 0 W/m2
02:49 45 °F 41.4 °F 30.35 in Calm     87% 0.00 in 0 W/m2
02:54 44.9 °F 41.3 °F 30.35 in Calm     87% 0.00 in 0 W/m2
02:59 44.8 °F 41.2 °F 30.35 in Calm     86.9% 0.00 in 0 W/m2
03:04 44.7 °F 40.8 °F 30.35 in Calm     86% 0.00 in 0 W/m2
03:09 44.6 °F 40.7 °F 30.35 in Calm     86% 0.00 in 0 W/m2
03:14 44.5 °F 40.6 °F 30.35 in Calm     86% 0.00 in 0 W/m2
03:19 44.4 °F 40.5 °F 30.35 in Calm     86% 0.00 in 0 W/m2
03:24 44.3 °F 40.4 °F 30.35 in Calm     86% 0.00 in 0 W/m2
03:29 44.3 °F 40.4 °F 30.35 in WNW 1.1 mph 1.1 mph 86.3% 0.00 in 0 W/m2
03:34 44.2 °F 40.6 °F 30.34 in Calm   4 mph 87% 0.00 in 0 W/m2
03:39 44.1 °F 40.3 °F 30.34 in SW 1.5 mph 4 mph 86.4% 0.00 in 0 W/m2
03:44 44 °F 40.1 °F 30.34 in Calm   4 mph 86% 0.00 in 0 W/m2
03:49 43.9 °F 40 °F 30.34 in SW 2.2 mph 1.9 mph 86% 0.00 in 0 W/m2
03:54 43.8 °F 40.2 °F 30.34 in SW 1.9 mph 6 mph 86.9% 0.00 in 0 W/m2
03:59 43.8 °F 40.2 °F 30.33 in WSW 0.5 mph 4 mph 87% 0.00 in 0 W/m2
04:04 43.7 °F 40 °F 30.33 in West 0.2 mph 0.1 mph 86.4% 0.00 in 0 W/m2
04:09 43.7 °F 39.8 °F 30.33 in West 0.3 mph 2 mph 86% 0.00 in 0 W/m2
04:14 43.6 °F 39.7 °F 30.33 in Calm     86% 0.00 in 0 W/m2
04:19 43.6 °F 39.7 °F 30.34 in Calm     86% 0.00 in 0 W/m2
04:24 43.5 °F 39.6 °F 30.34 in Calm     86% 0.00 in 0 W/m2
04:29 43.5 °F 39.6 °F 30.34 in Calm     86% 0.00 in 0 W/m2
04:34 43.4 °F 39.5 °F 30.34 in SW 0.2 mph 0.2 mph 86% 0.00 in 0 W/m2
04:39 43.3 °F 39.4 °F 30.34 in SW 0.3 mph 2 mph 86% 0.00 in 0 W/m2
04:44 43.3 °F 39.4 °F 30.34 in Calm     86% 0.00 in 0 W/m2
04:49 43.2 °F 39.3 °F 30.34 in Calm     86% 0.00 in 0 W/m2
04:54 43.1 °F 39.2 °F 30.34 in Calm     86% 0.00 in 0 W/m2
04:59 43 °F 39.1 °F 30.33 in SW 0.6 mph 0.1 mph 86% 0.00 in 0 W/m2
05:04 42.8 °F 38.7 °F 30.34 in Calm   2 mph 85.3% 0.00 in 0 W/m2
05:09 42.7 °F 38.5 °F 30.34 in Calm     85% 0.00 in 0 W/m2
05:14 42.5 °F 38.3 °F 30.34 in Calm     85% 0.00 in 0 W/m2
05:19 42.4 °F 38.2 °F 30.34 in Calm     85% 0.00 in 0 W/m2
05:24 42.3 °F 38.1 °F 30.34 in Calm     85% 0.00 in 0 W/m2
05:29 42.2 °F 38 °F 30.34 in SW 0.3 mph 0.1 mph 85% 0.00 in 0 W/m2
05:34 42 °F 37.8 °F 30.34 in Calm   2 mph 85% 0.00 in 0 W/m2
05:39 41.9 °F 37.7 °F 30.34 in Calm     85% 0.00 in 0 W/m2
05:44 41.8 °F 37.6 °F 30.34 in Calm     85% 0.00 in 0 W/m2
05:49 41.8 °F 37.6 °F 30.33 in Calm     85% 0.00 in 0 W/m2
05:54 41.6 °F 37.4 °F 30.33 in Calm     85% 0.00 in 0 W/m2
05:59 41.6 °F 37.3 °F 30.33 in Calm     85% 0.00 in 0 W/m2
06:04 41.5 °F 37.3 °F 30.33 in SW 0.6 mph 2 mph 85% 0.00 in 0 W/m2
06:09 41.3 °F 37 °F 30.34 in Calm     84.6% 0.00 in 0 W/m2
06:14 41.2 °F 36.8 °F 30.34 in Calm     84.1% 0.00 in 0 W/m2
06:19 41.1 °F 36.8 °F 30.35 in Calm     84.9% 0.00 in 0 W/m2
06:24 41 °F 36.8 °F 30.35 in Calm     85% 0.00 in 0 W/m2
06:29 40.9 °F 36.7 °F 30.35 in Calm     85% 0.00 in 0 W/m2
06:34 40.8 °F 36.6 °F 30.35 in Calm     85% 0.00 in 0 W/m2
06:39 40.8 °F 36.5 °F 30.35 in Calm     84.9% 0.00 in 0 W/m2
06:44 40.7 °F 36.2 °F 30.35 in Calm     84% 0.00 in 0 W/m2
06:49 40.7 °F 36.4 °F 30.34 in Calm     84.7% 0.00 in 0 W/m2
06:54 40.6 °F 36.4 °F 30.33 in SW 0.6 mph 0.1 mph 85% 0.00 in 0 W/m2
06:59 40.5 °F 36.3 °F 30.33 in Calm   2 mph 85% 0.00 in 0 W/m2
07:04 40.5 °F 36.3 °F 30.33 in WSW 1.4 mph 1.8 mph 85% 0.00 in 0 W/m2
07:09 40.4 °F 36.2 °F 30.33 in West 1 mph 4 mph 85% 0.00 in 0 W/m2
07:14 40.4 °F 36.2 °F 30.33 in Calm   4 mph 85% 0.00 in 0 W/m2
07:19 40.4 °F 36.2 °F 30.34 in Calm     85% 0.00 in 0 W/m2
07:24 40.4 °F 36.2 °F 30.34 in Calm     85% 0.00 in 5 W/m2
07:29 40.4 °F 36.2 °F 30.34 in Calm     85% 0.00 in 7 W/m2
07:34 40.4 °F 36.4 °F 30.34 in Calm     85.5% 0.00 in 12 W/m2
07:39 40.4 °F 36.5 °F 30.34 in Calm     86% 0.00 in 12 W/m2
07:44 40.4 °F 36.5 °F 30.35 in Calm     86% 0.00 in 16 W/m2
07:49 40.5 °F 36.6 °F 30.35 in Calm     86% 0.00 in 19 W/m2
07:54 40.5 °F 36.6 °F 30.35 in Calm     86% 0.00 in 18 W/m2
07:59 40.6 °F 36.7 °F 30.35 in Calm     86% 0.00 in 21 W/m2
08:04 40.7 °F 37 °F 30.35 in Calm     86.9% 0.00 in 21 W/m2
08:09 40.8 °F 37.2 °F 30.35 in Calm     87% 0.00 in 33 W/m2
08:14 41 °F 37.4 °F 30.35 in Calm     87% 0.00 in 28 W/m2
08:19 41.1 °F 37.5 °F 30.35 in Calm     87% 0.00 in 28 W/m2
08:24 41.3 °F 37.7 °F 30.35 in Calm     87% 0.00 in 35 W/m2
08:29 41.4 °F 37.8 °F 30.35 in Calm     87% 0.00 in 32 W/m2
08:34 41.6 °F 38.1 °F 30.36 in Calm     87.3% 0.00 in 33 W/m2
08:39 41.8 °F 38.4 °F 30.36 in Calm     87.5% 0.00 in 28 W/m2
08:44 42 °F 38.4 °F 30.36 in Calm     87% 0.00 in 32 W/m2
08:49 42.1 °F 38.5 °F 30.36 in Calm     87% 0.00 in 35 W/m2
08:54 42.2 °F 38.6 °F 30.36 in Calm     87% 0.00 in 40 W/m2
08:59 42.4 °F 38.8 °F 30.36 in West 2 mph 1.4 mph 87% 0.00 in 40 W/m2
09:04 42.5 °F 38.9 °F 30.36 in Calm   4 mph 87% 0.00 in 35 W/m2
09:09 42.7 °F 39 °F 30.36 in Calm     86.9% 0.00 in 47 W/m2
09:14 42.8 °F 38.9 °F 30.36 in Calm     86% 0.00 in 81 W/m2
09:19 43 °F 39.1 °F 30.36 in Calm     86% 0.00 in 127 W/m2
09:24 43.2 °F 39.3 °F 30.35 in West 0.3 mph 0.1 mph 86% 0.00 in 179 W/m2
09:29 43.4 °F 39.3 °F 30.35 in West 1.6 mph 2 mph 85.3% 0.00 in 366 W/m2
09:34 43.8 °F 39.5 °F 30.35 in West 2 mph 2.3 mph 84.8% 0.00 in 366 W/m2
09:39 44.2 °F 39.6 °F 30.35 in NNW 1.3 mph 6 mph 83.7% 0.00 in 172 W/m2
09:44 44.7 °F 39.7 °F 30.35 in NW 1 mph 2 mph 82.6% 0.00 in 128 W/m2
09:49 45 °F 39.8 °F 30.35 in WNW 1.8 mph 4 mph 81.9% 0.00 in 171 W/m2
09:54 45.4 °F 39.7 °F 30.35 in Calm   2 mph 80.1% 0.00 in 142 W/m2
09:59 45.8 °F 39.5 °F 30.35 in WNW 0.6 mph 0.1 mph 78.6% 0.00 in 84 W/m2
10:04 46.1 °F 39.6 °F 30.36 in Calm   2 mph 78% 0.00 in 93 W/m2
10:09 46.3 °F 39.5 °F 30.36 in NW 2 mph 1.2 mph 77% 0.00 in 111 W/m2
10:14 46.6 °F 39.4 °F 30.36 in NNW 1 mph 4 mph 75.9% 0.00 in 121 W/m2
10:19 46.8 °F 39.3 °F 30.37 in NNW 0.3 mph 0.2 mph 74.9% 0.00 in 120 W/m2
10:24 47.1 °F 38.8 °F 30.37 in NNW 0.5 mph 2 mph 72.8% 0.00 in 125 W/m2
10:29 47.3 °F 38.7 °F 30.37 in NNW 1 mph 0.7 mph 72% 0.00 in 146 W/m2
10:34 47.6 °F 39.1 °F 30.37 in Calm   4 mph 72.4% 0.00 in 176 W/m2
10:39 47.8 °F 39.4 °F 30.37 in Calm     72.4% 0.00 in 176 W/m2
10:44 48 °F 39.2 °F 30.37 in West 2.3 mph 2.2 mph 71.5% 0.00 in 461 W/m2
10:49 48.2 °F 39.3 °F 30.37 in WSW 1.3 mph 4 mph 71.1% 0.00 in 608 W/m2
10:54 48.7 °F 39.6 °F 30.37 in West 2.3 mph 6 mph 70.8% 0.00 in 269 W/m2
10:59 49.1 °F 39.9 °F 30.36 in NNW 3.2 mph 4 mph 70.3% 0.00 in 401 W/m2
11:04 49.6 °F 39.9 °F 30.35 in WSW 7 mph 6.9 mph 69.1% 0.00 in 596 W/m2
11:09 50.2 °F 40.3 °F 30.35 in West 4.8 mph 9 mph 68.6% 0.00 in 287 W/m2
11:14 50.7 °F 40.4 °F 30.35 in NNW 2.7 mph 4 mph 67.7% 0.00 in 274 W/m2
11:19 51.1 °F 40.5 °F 30.34 in West 5 mph 7 mph 67% 0.00 in 285 W/m2
11:24 51.4 °F 40.1 °F 30.34 in West 2 mph 12 mph 65.1% 0.00 in 374 W/m2
11:29 51.7 °F 40.1 °F 30.34 in WNW 3.9 mph 6 mph 64.5% 0.00 in 320 W/m2
11:34 52 °F 40.1 °F 30.34 in WSW 3.1 mph 4 mph 63.7% 0.00 in 278 W/m2
11:39 52.2 °F 40.2 °F 30.33 in WNW 2.3 mph 6 mph 63.5% 0.00 in 165 W/m2
11:44 52.4 °F 40.5 °F 30.33 in NW 2 mph 4 mph 63.7% 0.00 in 244 W/m2
11:49 52.6 °F 40.1 °F 30.33 in West 2.1 mph 4 mph 62.4% 0.00 in 244 W/m2
11:54 52.7 °F 39.8 °F 30.33 in NNW 3.3 mph 3.4 mph 61.4% 0.00 in 220 W/m2
11:59 52.8 °F 40.4 °F 30.33 in WNW 2.9 mph 6 mph 62.9% 0.00 in 376 W/m2
12:04 53 °F 41.7 °F 30.33 in WSW 4.5 mph 8 mph 65.6% 0.00 in 376 W/m2
12:09 53.2 °F 41.5 °F 30.32 in SW 2.4 mph 6 mph 64.6% 0.00 in 272 W/m2
12:14 53.4 °F 42 °F 30.32 in SW 0.9 mph 4 mph 65.1% 0.00 in 325 W/m2
12:19 53.6 °F 40.5 °F 30.32 in WNW 3.9 mph 6 mph 61.1% 0.00 in 260 W/m2
12:24 53.8 °F 41 °F 30.31 in SW 3.7 mph 6 mph 61.9% 0.00 in 216 W/m2
12:29 53.9 °F 41.4 °F 30.31 in WNW 2.1 mph 8 mph 62.4% 0.00 in 183 W/m2
12:34 54 °F 41.7 °F 30.31 in North 1.2 mph 6 mph 62.9% 0.00 in 181 W/m2
12:39 54.1 °F 40.9 °F 30.31 in North 6.6 mph 8 mph 61% 0.00 in 139 W/m2
12:44 53.9 °F 41.4 °F 30.31 in North 7.8 mph 10.3 mph 62.6% 0.00 in 204 W/m2
12:49 53.7 °F 42.4 °F 30.31 in NW 4.2 mph 14 mph 65.5% 0.00 in 163 W/m2
12:54 53.6 °F 42.7 °F 30.31 in NW 2.5 mph 6 mph 66.5% 0.00 in 246 W/m2
12:59 53.5 °F 42.6 °F 30.31 in NW 0.6 mph 6 mph 66.6% 0.00 in 246 W/m2
13:04 53.4 °F 42.5 °F 30.31 in NW 2.4 mph 4.3 mph 66.6% 0.00 in 142 W/m2
13:09 53.3 °F 42.5 °F 30.30 in NW 2.8 mph 6 mph 66.7% 0.00 in 274 W/m2
13:14 53.2 °F 42.6 °F 30.30 in WNW 2.1 mph 4 mph 67.1% 0.00 in 230 W/m2
13:19 53.2 °F 42.9 °F 30.30 in Calm   2 mph 68% 0.00 in 204 W/m2
13:24 53.2 °F 42.9 °F 30.29 in NW 1.6 mph 0.9 mph 68% 0.00 in 174 W/m2
13:29 53.2 °F 42.7 °F 30.29 in NW 0.6 mph 4 mph 67.6% 0.00 in 160 W/m2
13:34 53.2 °F 42.9 °F 30.29 in NW 0.2 mph 2 mph 68% 0.00 in 130 W/m2
13:39 53.2 °F 42.8 °F 30.29 in NW 1.3 mph 2 mph 67.7% 0.00 in 149 W/m2
13:44 53.2 °F 43.2 °F 30.29 in NW 0.5 mph 2 mph 68.6% 0.00 in 174 W/m2
13:49 53.3 °F 43.7 °F 30.29 in NW 5.3 mph 7.4 mph 69.8% 0.00 in 209 W/m2
13:54 53.3 °F 44.1 °F 30.29 in North 0.6 mph 9 mph 71% 0.00 in 202 W/m2
13:59 53.3 °F 44.5 °F 30.29 in North 0.9 mph 0.2 mph 72% 0.00 in 176 W/m2
14:04 53.3 °F 44.6 °F 30.28 in NNW 2.2 mph 2 mph 72.1% 0.00 in 267 W/m2
14:09 53.3 °F 44.9 °F 30.28 in WNW 1.4 mph 4 mph 73% 0.00 in 244 W/m2
14:14 53.4 °F 45.2 °F 30.28 in WSW 2.3 mph 4 mph 73.7% 0.00 in 251 W/m2
14:19 53.6 °F 45.5 °F 30.27 in WSW 3.3 mph 6 mph 74% 0.00 in 276 W/m2
14:24 53.7 °F 45.2 °F 30.27 in North 2.4 mph 6 mph 73% 0.00 in 206 W/m2
14:29 53.8 °F 45 °F 30.27 in NW 1.2 mph 4 mph 72% 0.00 in 146 W/m2
14:34 53.8 °F 44.8 °F 30.27 in SW 3.3 mph 4 mph 71.6% 0.00 in 139 W/m2
14:39 53.9 °F 44.4 °F 30.27 in WSW 3.6 mph 8 mph 70.4% 0.00 in 202 W/m2
14:44 53.9 °F 44.3 °F 30.27 in NNW 2.9 mph 6 mph 70% 0.00 in 230 W/m2
14:49 53.9 °F 44.5 °F 30.27 in NNW 2.1 mph 8 mph 70.3% 0.00 in 221 W/m2
14:54 54 °F 44.8 °F 30.26 in West 2.8 mph 4 mph 71% 0.00 in 46 W/m2
14:59 53.9 °F 44.7 °F 30.26 in West 2 mph 6 mph 71% 0.00 in 357 W/m2
15:04 53.9 °F 45 °F 30.26 in WNW 2.1 mph 4 mph 71.7% 0.00 in 357 W/m2
15:09 54.2 °F 45.4 °F 30.25 in West 4.4 mph 5.8 mph 72% 0.00 in 343 W/m2
15:14 54.5 °F 45.4 °F 30.25 in NNW 3 mph 12 mph 71.1% 0.00 in 290 W/m2
15:19 54.8 °F 45.1 °F 30.25 in NW 1.4 mph 6 mph 69.7% 0.00 in 272 W/m2
15:24 55.2 °F 45.3 °F 30.25 in NW 2.5 mph 2.6 mph 69.4% 0.00 in 260 W/m2
15:29 55.5 °F 45.2 °F 30.25 in WNW 2.9 mph 4 mph 68.3% 0.00 in 243 W/m2
15:34 55.8 °F 45.3 °F 30.25 in WNW 3.8 mph 8 mph 67.8% 0.00 in 227 W/m2
15:39 56 °F 45.4 °F 30.25 in NW 3.5 mph 6 mph 67.4% 0.00 in 139 W/m2
15:44 56.2 °F 45.1 °F 30.25 in NNW 3.4 mph 6 mph 66.3% 0.00 in 155 W/m2
15:49 56.3 °F 45.2 °F 30.24 in NW 3.4 mph 6 mph 66.3% 0.00 in 151 W/m2
15:54 56.4 °F 45.3 °F 30.25 in WNW 1.1 mph 12 mph 66.4% 0.00 in 109 W/m2
15:59 56.4 °F 45 °F 30.25 in NW 2.8 mph 2 mph 65.4% 0.00 in 134 W/m2
16:04 56.4 °F 45 °F 30.25 in NNW 2.3 mph 6 mph 65.6% 0.00 in 148 W/m2
16:09 56.2 °F 44.9 °F 30.25 in NNW 0.3 mph 6 mph 65.7% 0.00 in 67 W/m2
16:14 56 °F 44.9 °F 30.25 in NW 1.1 mph 1.5 mph 66.2% 0.00 in 54 W/m2
16:19 55.9 °F 44.8 °F 30.25 in NW 1.9 mph 4 mph 66.1% 0.00 in 54 W/m2
16:24 55.8 °F 44.6 °F 30.25 in NW 0.9 mph 4 mph 66% 0.00 in 33 W/m2
16:29 55.6 °F 44.7 °F 30.25 in NNW 1.6 mph 2.4 mph 66.7% 0.00 in 53 W/m2
16:34 55.3 °F 44.5 °F 30.26 in NNW 1.3 mph 4 mph 67% 0.00 in 40 W/m2
16:39 55.1 °F 44.8 °F 30.26 in NW 3.8 mph 4.3 mph 68.3% 0.00 in 23 W/m2
16:44 54.8 °F 45 °F 30.25 in NNW 1.8 mph 6 mph 69.4% 0.00 in 23 W/m2
16:49 54.5 °F 44.9 °F 30.26 in NNW 3.1 mph 6 mph 70% 0.00 in 23 W/m2
16:54 54.3 °F 44.9 °F 30.26 in NNW 2.4 mph 8 mph 70.7% 0.00 in 12 W/m2
16:59 54 °F 44.8 °F 30.26 in NNW 2.4 mph 4 mph 71.1% 0.00 in 11 W/m2
17:04 53.6 °F 44.8 °F 30.26 in NNW 2.6 mph 6 mph 72% 0.00 in 9 W/m2
17:09 53.3 °F 44.7 °F 30.26 in Calm   6 mph 72.4% 0.00 in 7 W/m2
17:14 53.1 °F 44.7 °F 30.25 in NW 0.5 mph 0.1 mph 73% 0.00 in 7 W/m2
17:19 52.8 °F 44.5 °F 30.26 in Calm   2 mph 73.4% 0.00 in 5 W/m2
17:24 52.4 °F 44.4 °F 30.26 in Calm     74.1% 0.00 in 0 W/m2
17:29 52.2 °F 44.5 °F 30.26 in North 1.6 mph 4 mph 75% 0.00 in 0 W/m2
17:34 51.9 °F 44.2 °F 30.26 in North 0.3 mph 4 mph 75.1% 0.00 in 0 W/m2
17:39 51.6 °F 44.3 °F 30.27 in Calm     75.9% 0.00 in 0 W/m2
17:44 51.3 °F 44.2 °F 30.27 in Calm     76.5% 0.00 in 0 W/m2
17:49 51 °F 44 °F 30.27 in Calm     77% 0.00 in 0 W/m2
17:54 50.7 °F 44 °F 30.27 in Calm     77.9% 0.00 in 0 W/m2
17:59 50.4 °F 43.8 °F 30.27 in Calm     78% 0.00 in 0 W/m2
18:04 50.2 °F 43.7 °F 30.27 in Calm     78.1% 0.00 in 0 W/m2
18:09 50 °F 43.7 °F 30.27 in Calm     79% 0.00 in 0 W/m2
18:14 49.8 °F 43.5 °F 30.27 in Calm     79% 0.00 in 0 W/m2
18:19 49.6 °F 43.4 °F 30.27 in Calm     79% 0.00 in 0 W/m2
18:24 49.4 °F 43.2 °F 30.28 in Calm     79% 0.00 in 0 W/m2
18:29 49.1 °F 42.9 °F 30.27 in Calm     79% 0.00 in 0 W/m2
18:34 48.8 °F 42.6 °F 30.27 in Calm     79% 0.00 in 0 W/m2
El Dorado Weather
Compliments of Weather Underground - 2.75 mb